Time;durP1;ratioP1;P1;durP2;ratioP2;P2;SDS_P1;SDS_P2;PMS_P1;PMS_P2;Temp;Humidity;BMP_temperature;BMP_pressure;BME280_temperature;BME280_humidity;BME280_pressure;Samples;Min_cycle;Max_cycle;Signal;HPM_P1;HPM_P2
2022/04/03 00:01:19;;;;;;;1.48;0.80;;;9.00;51.60;;;;;;20488721;29;20085;-76
2022/04/03 00:11:20;;;;;;;3.35;1.23;;;9.00;51.60;;;;;;20468213;28;20054;-76
2022/04/03 00:21:21;;;;;;;1.95;1.02;;;9.00;51.50;;;;;;20470389;28;20050;-76
2022/04/03 00:31:23;;;;;;;2.50;1.00;;;9.00;51.60;;;;;;20469681;29;20035;-76
2022/04/03 00:41:23;;;;;;;1.30;0.80;;;9.00;51.50;;;;;;20501228;28;20330;-76
2022/04/03 00:51:25;;;;;;;1.43;0.97;;;9.00;51.50;;;;;;20468390;29;20118;-76
2022/04/03 01:01:25;;;;;;;1.25;0.80;;;9.00;51.40;;;;;;20500246;29;20306;-75
2022/04/03 01:11:26;;;;;;;1.65;0.82;;;8.90;51.40;;;;;;20482778;29;20024;-75
2022/04/03 01:21:27;;;;;;;1.38;0.80;;;8.90;51.30;;;;;;20466519;29;20035;-76
2022/04/03 01:31:27;;;;;;;2.05;0.98;;;8.90;51.30;;;;;;20466091;29;20023;-76
2022/04/03 01:41:28;;;;;;;2.80;1.38;;;8.90;51.30;;;;;;20465135;29;20047;-75
2022/04/03 01:51:29;;;;;;;2.60;0.95;;;8.90;51.30;;;;;;20498475;29;20039;-76
2022/04/03 02:01:30;;;;;;;2.40;1.20;;;8.90;51.20;;;;;;20480622;29;20128;-75
2022/04/03 02:11:31;;;;;;;2.67;1.00;;;8.90;51.80;;;;;;20462985;28;20035;-76
2022/04/03 02:21:31;;;;;;;1.47;1.10;;;8.90;51.10;;;;;;20839143;23;20054;-76
2022/04/03 02:31:32;;;;;;;1.92;1.40;;;8.90;51.10;;;;;;20482144;28;20780;-76
2022/04/03 02:41:33;;;;;;;2.40;0.88;;;8.80;51.00;;;;;;20494577;29;20035;-76
2022/04/03 02:51:35;;;;;;;2.85;1.30;;;8.90;51.60;;;;;;20505659;28;20043;-76
2022/04/03 03:01:36;;;;;;;2.15;1.23;;;8.80;50.80;;;;;;20508266;29;20098;-75
2022/04/03 03:11:36;;;;;;;2.85;1.00;;;8.80;50.80;;;;;;20508181;29;20481;-75
2022/04/03 03:21:37;;;;;;;1.73;0.95;;;8.80;50.80;;;;;;20507539;28;20365;-75
2022/04/03 03:31:37;;;;;;;1.95;1.00;;;8.80;50.70;;;;;;20506121;29;20114;-75
2022/04/03 03:41:38;;;;;;;1.92;0.98;;;8.80;50.70;;;;;;20505332;29;20039;-75
2022/04/03 03:51:39;;;;;;;2.97;1.02;;;8.80;50.70;;;;;;20504349;29;20070;-75
2022/04/03 04:01:40;;;;;;;1.60;0.95;;;8.80;50.70;;;;;;20503293;28;20106;-76
2022/04/03 04:11:41;;;;;;;1.25;0.57;;;8.70;50.60;;;;;;20503570;29;20388;-75
2022/04/03 04:21:42;;;;;;;1.85;0.80;;;8.80;50.50;;;;;;20500202;29;20042;-76
2022/04/03 04:31:42;;;;;;;0.65;0.57;;;9.00;50.20;;;;;;20501161;28;20074;-75
2022/04/03 04:41:43;;;;;;;3.67;0.90;;;9.30;49.80;;;;;;20501013;28;20676;-77
2022/04/03 04:51:44;;;;;;;2.45;0.85;;;9.60;49.30;;;;;;20500537;28;20126;-75
2022/04/03 05:01:44;;;;;;;1.33;0.70;;;9.80;48.60;;;;;;20499457;28;20043;-76
2022/04/03 05:11:48;;;;;;;2.27;0.60;;;10.10;48.10;;;;;;20499025;28;20322;-75
2022/04/03 05:21:48;;;;;;;2.08;1.00;;;10.10;47.70;;;;;;20514673;28;20358;-75
2022/04/03 05:31:49;;;;;;;3.42;1.23;;;10.00;47.70;;;;;;20498608;28;20035;-75
2022/04/03 05:41:54;;;;;;;1.92;0.80;;;9.80;48.10;;;;;;20497786;28;20035;-75
2022/04/03 05:51:54;;;;;;;1.73;0.80;;;9.60;48.40;;;;;;20512808;28;20318;-75
2022/04/03 06:01:55;;;;;;;0.73;0.65;;;9.40;48.70;;;;;;20496431;28;20039;-75
2022/04/03 06:11:55;;;;;;;1.42;0.65;;;9.30;49.00;;;;;;20496888;28;20063;-75
2022/04/03 06:21:56;;;;;;;2.22;0.98;;;9.20;49.20;;;;;;20500035;28;20035;-75
2022/04/03 06:31:57;;;;;;;2.63;1.23;;;9.10;49.40;;;;;;20508260;29;20035;-75
2022/04/03 06:41:57;;;;;;;1.55;0.85;;;9.10;49.60;;;;;;20493804;29;20035;-78
2022/04/03 06:51:58;;;;;;;4.82;0.95;;;9.00;49.70;;;;;;20461510;29;20082;-78
2022/04/03 07:01:59;;;;;;;1.95;1.30;;;9.00;49.80;;;;;;20477076;29;20825;-78
2022/04/03 07:12:00;;;;;;;2.13;1.20;;;8.90;49.80;;;;;;20509393;29;20059;-77
2022/04/03 07:22:00;;;;;;;1.25;0.77;;;8.90;49.80;;;;;;20525526;28;20047;-80
2022/04/03 07:32:01;;;;;;;2.60;0.75;;;8.90;49.80;;;;;;20524631;28;20042;-75
2022/04/03 07:42:03;;;;;;;4.10;1.63;;;8.90;49.80;;;;;;20508760;28;20458;-81
2022/04/03 07:52:04;;;;;;;1.60;1.08;;;8.90;49.80;;;;;;20525468;28;20032;-78
2022/04/03 08:02:04;;;;;;;2.50;1.15;;;8.90;49.80;;;;;;20524528;28;20039;-77
2022/04/03 08:12:06;;;;;;;3.78;1.48;;;8.90;50.50;;;;;;20517906;28;20453;-80
2022/04/03 08:22:06;;;;;;;5.47;1.40;;;8.90;49.90;;;;;;20491956;28;20130;-80
2022/04/03 08:32:07;;;;;;;2.30;1.10;;;9.00;50.00;;;;;;20471506;28;20058;-79
2022/04/03 08:42:10;;;;;;;1.77;0.93;;;9.00;50.00;;;;;;20505856;28;20506;-77
2022/04/03 08:52:12;;;;;;;3.13;1.17;;;9.00;50.00;;;;;;20481010;28;20074;-79
2022/04/03 09:02:13;;;;;;;2.35;1.27;;;9.00;50.10;;;;;;20467765;29;20039;-79
2022/04/03 09:12:18;;;;;;;4.75;1.25;;;9.00;50.30;;;;;;20501501;28;20820;-82
2022/04/03 09:22:27;;;;;;;5.10;1.10;;;9.00;50.30;;;;;;20470380;28;20043;-77
2022/04/03 09:32:28;;;;;;;1.55;0.70;;;9.10;50.60;;;;;;20490920;29;20394;-80
2022/04/03 09:42:29;;;;;;;7.25;0.77;;;9.00;50.60;;;;;;20517038;28;20035;-78
2022/04/03 09:52:46;;;;;;;2.25;1.00;;;9.00;50.60;;;;;;20500004;29;20042;-79
2022/04/03 10:02:49;;;;;;;2.20;0.80;;;9.00;50.50;;;;;;20484503;29;20065;-78
2022/04/03 10:12:50;;;;;;;0.70;0.40;;;8.90;50.60;;;;;;20482785;28;20591;-77
2022/04/03 10:22:54;;;;;;;1.45;0.77;;;9.10;50.40;;;;;;20511987;29;20043;-78
2022/04/03 10:32:56;;;;;;;2.13;0.68;;;9.30;50.10;;;;;;20514355;28;20041;-77
2022/04/03 10:43:01;;;;;;;1.45;0.60;;;9.50;49.60;;;;;;20481504;29;20446;-76
2022/04/03 10:53:01;;;;;;;3.70;1.02;;;9.80;49.20;;;;;;20497407;29;20126;-82
2022/04/03 11:03:28;;;;;;;1.20;0.60;;;10.10;48.80;;;;;;20495960;29;20545;-78
2022/04/03 11:13:34;;;;;;;1.77;0.77;;;10.10;48.80;;;;;;20506383;28;20382;-79
2022/04/03 11:23:36;;;;;;;1.37;0.67;;;9.90;49.10;;;;;;20506430;28;20367;-79
2022/04/03 11:33:36;;;;;;;1.25;0.57;;;9.70;49.60;;;;;;20445697;28;20082;-76
2022/04/03 11:43:37;;;;;;;5.70;0.60;;;9.60;50.20;;;;;;20427649;29;20119;-81
2022/04/03 11:53:39;;;;;;;2.42;0.80;;;9.50;50.50;;;;;;20410545;29;20565;-79
2022/04/03 12:03:40;;;;;;;5.88;0.77;;;9.50;50.90;;;;;;20466829;29;20341;-79
2022/04/03 12:13:41;;;;;;;2.75;0.88;;;9.40;51.40;;;;;;20504014;29;20068;-78
2022/04/03 12:24:01;;;;;;;4.27;1.37;;;9.40;51.60;;;;;;20504799;28;20091;-81
2022/04/03 12:34:06;;;;;;;1.45;0.98;;;9.30;51.80;;;;;;20524577;28;20290;-90
2022/04/03 12:44:07;;;;;;;4.35;1.13;;;9.30;52.10;;;;;;20523999;28;20042;-87
2022/04/03 12:54:08;;;;;;;2.42;1.00;;;9.30;52.20;;;;;;20488989;29;20046;-83
2022/04/03 13:04:09;;;;;;;1.92;0.85;;;9.30;52.40;;;;;;20487712;29;20039;-83
2022/04/03 13:14:28;;;;;;;4.45;1.55;;;9.20;52.70;;;;;;20978967;28;20421;-85
2022/04/03 13:24:29;;;;;;;6.82;1.25;;;9.20;53.00;;;;;;20945232;28;20047;-81
2022/04/03 13:34:29;;;;;;;4.47;1.10;;;9.20;53.20;;;;;;20977962;28;20036;-81
2022/04/03 13:44:30;;;;;;;1.58;0.60;;;9.10;53.30;;;;;;20946205;28;20048;-81
2022/04/03 13:54:31;;;;;;;6.10;0.95;;;9.10;53.60;;;;;;20946528;28;20064;-81
2022/04/03 14:04:31;;;;;;;3.55;0.57;;;9.10;53.80;;;;;;20978284;28;20467;-78
2022/04/03 14:14:32;;;;;;;1.42;0.63;;;9.20;53.90;;;;;;20943221;28;20279;-78
2022/04/03 14:24:33;;;;;;;1.90;0.80;;;9.20;53.70;;;;;;20910957;28;20433;-76
2022/04/03 14:34:33;;;;;;;1.75;0.68;;;9.20;53.80;;;;;;20919625;28;20086;-77
2022/04/03 14:44:34;;;;;;;1.90;0.50;;;9.20;53.90;;;;;;20901170;28;20037;-77
2022/04/03 14:54:35;;;;;;;1.53;0.70;;;9.20;54.30;;;;;;20980940;28;20102;-78
2022/04/03 15:04:38;;;;;;;2.08;0.73;;;9.20;54.60;;;;;;20917654;28;20279;-79
2022/04/03 15:14:40;;;;;;;0.80;0.40;;;9.20;54.60;;;;;;20884051;28;20029;-78
2022/04/03 15:24:41;;;;;;;2.90;0.63;;;9.20;54.50;;;;;;20914673;28;20036;-79
2022/04/03 15:34:41;;;;;;;0.20;0.20;;;9.40;54.20;;;;;;20915488;28;20064;-77
2022/04/03 15:44:42;;;;;;;0.77;0.47;;;9.60;53.90;;;;;;20898118;28;20033;-79
2022/04/03 15:54:43;;;;;;;1.02;0.40;;;9.60;53.70;;;;;;20853420;28;20637;-75
2022/04/03 16:04:43;;;;;;;1.05;0.40;;;9.60;54.00;;;;;;20831491;28;20442;-76
2022/04/03 16:14:44;;;;;;;0.65;0.35;;;9.50;54.30;;;;;;20831748;28;20506;-76
2022/04/03 16:24:44;;;;;;;0.88;0.40;;;9.40;54.40;;;;;;20829435;28;20033;-77
2022/04/03 16:34:45;;;;;;;0.98;0.60;;;9.40;54.60;;;;;;20836254;28;20040;-78
2022/04/03 16:44:46;;;;;;;0.95;0.43;;;9.30;54.80;;;;;;20871522;28;20032;-78
2022/04/03 16:54:46;;;;;;;1.45;0.70;;;9.30;55.20;;;;;;20847223;28;20120;-77
2022/04/03 17:04:47;;;;;;;1.80;0.50;;;9.30;55.80;;;;;;20875502;28;20045;-79
2022/04/03 17:14:48;;;;;;;0.88;0.50;;;9.20;56.10;;;;;;20874469;28;20116;-82
2022/04/03 17:24:48;;;;;;;2.17;0.50;;;9.20;56.50;;;;;;20873151;28;20033;-81
2022/04/03 17:34:49;;;;;;;1.27;0.47;;;9.10;56.50;;;;;;20854706;28;20060;-78
2022/04/03 17:44:49;;;;;;;1.00;0.47;;;9.20;56.60;;;;;;20871534;28;20807;-81
2022/04/03 17:54:51;;;;;;;0.75;0.35;;;9.20;56.70;;;;;;20977071;28;20111;-81
2022/04/03 18:04:53;;;;;;;3.33;0.50;;;9.20;57.30;;;;;;20985581;28;20037;-79
2022/04/03 18:14:54;;;;;;;1.27;0.45;;;9.10;56.70;;;;;;21000156;28;20383;-81
2022/04/03 18:24:56;;;;;;;0.43;0.40;;;9.10;56.70;;;;;;20982862;28;20036;-80
2022/04/03 18:34:56;;;;;;;1.00;0.50;;;9.10;56.70;;;;;;20965183;28;20291;-80
2022/04/03 18:44:57;;;;;;;1.27;0.50;;;9.10;56.70;;;;;;20997566;28;20036;-79
2022/04/03 18:54:57;;;;;;;0.70;0.40;;;9.10;56.70;;;;;;20998600;28;20319;-80
2022/04/03 19:04:58;;;;;;;1.38;0.57;;;9.10;56.80;;;;;;20978175;28;20094;-80
2022/04/03 19:14:59;;;;;;;1.50;0.60;;;9.10;56.80;;;;;;20893584;28;20120;-81
2022/04/03 19:24:59;;;;;;;0.70;0.50;;;9.00;56.80;;;;;;20912451;28;20047;-79
2022/04/03 19:35:00;;;;;;;0.60;0.40;;;9.00;56.80;;;;;;20893269;28;20279;-80
2022/04/03 19:45:00;;;;;;;0.80;0.60;;;9.00;56.80;;;;;;20909968;28;20128;-79
2022/04/03 19:55:01;;;;;;;0.77;0.50;;;9.00;56.80;;;;;;20892916;28;20033;-80
2022/04/03 20:05:03;;;;;;;1.10;0.50;;;9.00;56.80;;;;;;20875996;28;20134;-80
2022/04/03 20:15:04;;;;;;;1.17;0.77;;;9.00;56.80;;;;;;20890020;28;20422;-80
2022/04/03 20:25:06;;;;;;;1.15;0.47;;;9.00;57.10;;;;;;20888940;28;20368;-80
2022/04/03 20:35:07;;;;;;;0.77;0.35;;;9.00;56.80;;;;;;20883296;28;20044;-80
2022/04/03 20:45:07;;;;;;;0.50;0.40;;;9.00;56.90;;;;;;20885911;28;20032;-80
2022/04/03 20:55:08;;;;;;;1.20;0.50;;;9.00;56.90;;;;;;20904549;28;20094;-80
2022/04/03 21:05:09;;;;;;;0.75;0.52;;;9.00;56.90;;;;;;20871178;28;20524;-79
2022/04/03 21:15:10;;;;;;;1.38;0.70;;;9.00;56.90;;;;;;20872079;28;20387;-79
2022/04/03 21:25:10;;;;;;;0.85;0.60;;;9.00;56.90;;;;;;20872354;28;20124;-80
2022/04/03 21:35:11;;;;;;;0.73;0.43;;;9.00;56.90;;;;;;20919064;28;20036;-80
2022/04/03 21:45:11;;;;;;;1.52;0.63;;;9.00;57.00;;;;;;20887184;28;20123;-80
2022/04/03 21:55:12;;;;;;;0.60;0.30;;;8.90;56.90;;;;;;20869583;28;20436;-80
2022/04/03 22:05:13;;;;;;;0.30;0.30;;;8.90;56.90;;;;;;20886018;28;20041;-79
2022/04/03 22:15:14;;;;;;;3.15;0.70;;;8.90;56.90;;;;;;20900977;28;20069;-79
2022/04/03 22:25:14;;;;;;;1.38;0.70;;;9.00;57.00;;;;;;20899996;28;20090;-80
2022/04/03 22:35:16;;;;;;;1.13;0.70;;;8.90;57.00;;;;;;20899258;28;20123;-80
2022/04/03 22:45:16;;;;;;;0.50;0.50;;;8.90;57.00;;;;;;20915207;28;20037;-80
2022/04/03 22:55:17;;;;;;;0.75;0.57;;;8.90;57.00;;;;;;20891571;28;20364;-80
2022/04/03 23:05:17;;;;;;;1.63;1.00;;;8.90;57.00;;;;;;20880237;28;20037;-80
2022/04/03 23:15:18;;;;;;;0.95;0.50;;;8.90;57.00;;;;;;20880593;28;20374;-80
2022/04/03 23:25:19;;;;;;;0.95;0.60;;;8.90;57.00;;;;;;20911849;28;20053;-80
2022/04/03 23:35:19;;;;;;;1.85;0.60;;;8.90;57.10;;;;;;20894965;28;20436;-80
2022/04/03 23:45:20;;;;;;;0.73;0.60;;;8.90;57.10;;;;;;20860859;28;20028;-80
2022/04/03 23:55:20;;;;;;;0.98;0.55;;;8.90;57.10;;;;;;20859503;28;20061;-79
